createdAt,value
2019-06-10T06:26:48.086Z,964.98
2019-06-10T06:27:47.985Z,965.00
2019-06-10T06:28:47.942Z,964.90
2019-06-10T06:29:47.923Z,964.87
2019-06-10T06:30:47.854Z,964.88
2019-06-10T06:31:47.819Z,964.88
2019-06-10T06:32:47.840Z,964.82
2019-06-10T06:33:47.729Z,964.83
2019-06-10T06:34:47.683Z,964.86
2019-06-10T06:35:47.638Z,964.76
2019-06-10T06:36:47.597Z,964.78
2019-06-10T06:37:47.561Z,964.86
2019-06-10T06:38:47.573Z,964.95
2019-06-10T06:39:47.470Z,964.96
2019-06-10T06:40:47.428Z,965.02
2019-06-10T06:41:47.392Z,965.01
2019-06-10T06:42:47.344Z,965.01
2019-06-10T06:43:47.304Z,964.97
2019-06-10T06:44:47.288Z,964.94
2019-06-10T06:45:47.222Z,964.92
2019-06-10T06:46:47.179Z,964.93
2019-06-10T06:47:47.135Z,964.94
2019-06-10T06:48:47.143Z,964.97
2019-06-10T06:49:47.051Z,965.02
2019-06-10T06:51:01.964Z,965.02
2019-06-10T06:51:54.621Z,965.06
2019-06-10T06:53:18.887Z,965.03
2019-06-10T06:53:51.907Z,965.03
2019-06-10T06:54:46.872Z,965.02
2019-06-10T06:55:46.802Z,965.00
2019-06-10T06:56:46.757Z,965.04
2019-06-10T06:57:46.729Z,965.00
2019-06-10T06:58:46.674Z,964.98
2019-06-10T06:59:46.630Z,964.94
2019-06-10T07:01:00.113Z,964.86
2019-06-10T07:01:46.547Z,964.70
2019-06-10T07:02:46.506Z,964.58
2019-06-10T07:03:46.459Z,964.57
2019-06-10T07:04:46.420Z,964.65
2019-06-10T07:05:46.410Z,964.70
2019-06-10T07:06:46.336Z,964.72
2019-06-10T07:07:46.294Z,964.73
2019-06-10T07:09:00.277Z,964.66
2019-06-10T07:09:46.208Z,964.70
2019-06-10T07:10:46.168Z,964.71
2019-06-10T07:11:46.212Z,964.63
2019-06-10T07:12:46.084Z,964.70
2019-06-10T07:13:46.145Z,964.65
2019-06-10T07:14:46.001Z,964.65
2019-06-10T07:15:47.324Z,964.64
2019-06-10T07:16:46.778Z,964.62
2019-06-10T07:17:46.245Z,964.60
2019-06-10T07:18:50.094Z,964.58
2019-06-10T07:19:45.924Z,964.60
2019-06-10T07:20:45.989Z,964.57
2019-06-10T07:22:06.644Z,964.58
2019-06-10T07:22:46.586Z,964.53
2019-06-10T07:23:47.036Z,964.52
2019-06-10T07:24:47.484Z,964.46
2019-06-10T07:25:47.587Z,964.37
2019-06-10T07:26:51.133Z,964.31
2019-06-10T07:27:46.949Z,964.22
2019-06-10T07:28:47.439Z,964.10
2019-06-10T07:29:47.179Z,963.98
2019-06-10T07:30:51.053Z,963.91
2019-06-10T07:31:49.325Z,963.88
2019-06-10T07:32:47.312Z,963.81
2019-06-10T07:33:47.211Z,963.78
2019-06-10T07:34:46.937Z,963.71
2019-06-10T07:35:45.467Z,963.69
2019-06-10T07:36:45.490Z,963.66
2019-06-10T07:37:46.102Z,963.63
2019-06-10T07:38:48.690Z,963.59
2019-06-10T07:39:45.400Z,963.57
2019-06-10T07:40:45.776Z,963.56
2019-06-10T07:41:47.764Z,963.58
2019-06-10T07:42:45.437Z,963.61
2019-06-10T07:43:49.428Z,963.60
2019-06-10T07:44:45.308Z,963.61
2019-06-10T07:45:47.798Z,963.55
2019-06-10T07:46:45.725Z,963.52
2019-06-10T07:47:45.673Z,963.46
2019-06-10T07:48:47.845Z,963.46
2019-06-10T07:49:45.638Z,963.49
2019-06-10T07:50:45.832Z,963.46
2019-06-10T07:51:46.303Z,963.48
2019-06-10T07:52:46.564Z,963.45
2019-06-10T07:53:46.585Z,963.46
2019-06-10T07:54:45.341Z,963.45
2019-06-10T07:55:46.399Z,963.42
2019-06-10T07:56:49.843Z,963.37
2019-06-10T07:57:45.566Z,963.39
2019-06-10T07:58:47.488Z,963.36
2019-06-10T07:59:45.824Z,963.38
2019-06-10T08:00:48.036Z,963.38
2019-06-10T08:01:50.974Z,963.35
2019-06-10T08:02:45.892Z,963.33
2019-06-10T08:03:46.422Z,963.35
2019-06-10T08:04:45.835Z,963.38
2019-06-10T08:05:46.042Z,963.34
2019-06-10T08:06:45.700Z,963.35
2019-06-10T08:07:47.053Z,963.31
2019-06-10T08:08:45.394Z,963.30
2019-06-10T08:09:45.579Z,963.33
2019-06-10T08:10:46.066Z,963.32
2019-06-10T08:11:46.542Z,963.35
2019-06-10T08:12:44.799Z,963.45
2019-06-10T08:13:46.160Z,963.37
2019-06-10T08:14:45.300Z,963.38
2019-06-10T08:15:45.980Z,963.40
2019-06-10T08:16:46.501Z,963.42
2019-06-10T08:17:45.626Z,963.45
2019-06-10T08:19:14.240Z,963.47
2019-06-10T08:19:49.070Z,963.50
2019-06-10T08:20:45.073Z,963.54
2019-06-10T08:21:45.918Z,963.55
2019-06-10T08:22:50.971Z,963.61
2019-06-10T08:23:45.636Z,963.57
2019-06-10T08:24:45.210Z,963.53
2019-06-10T08:25:46.402Z,963.55
2019-06-10T08:26:45.272Z,963.59
2019-06-10T08:27:45.389Z,963.50
2019-06-10T08:28:46.466Z,963.50
2019-06-10T08:29:46.132Z,963.48
2019-06-10T08:30:44.722Z,963.43
2019-06-10T08:31:47.584Z,963.42
2019-06-10T08:32:45.282Z,963.34
2019-06-10T08:33:46.180Z,963.33
2019-06-10T08:34:45.941Z,963.30
2019-06-10T08:35:53.618Z,963.33
2019-06-10T08:36:47.115Z,963.31
2019-06-10T08:37:43.301Z,963.30
2019-06-10T08:38:45.045Z,963.23
2019-06-10T08:39:44.341Z,963.24
2019-06-10T08:40:45.012Z,963.20
2019-06-10T08:41:45.569Z,963.10
2019-06-10T08:42:44.131Z,963.02
2019-06-10T08:43:45.268Z,962.98
2019-06-10T08:44:43.962Z,963.13
2019-06-10T08:45:44.157Z,962.89
2019-06-10T08:46:44.990Z,962.80
2019-06-10T08:47:45.664Z,962.77
2019-06-10T08:48:45.869Z,962.79
2019-06-10T08:49:44.562Z,962.71
2019-06-10T08:50:46.547Z,962.70
2019-06-10T08:51:45.457Z,962.64
2019-06-10T08:52:56.860Z,962.58
2019-06-10T08:53:45.025Z,962.59
2019-06-10T08:54:47.215Z,962.61
2019-06-10T08:55:44.118Z,962.51
2019-06-10T08:56:46.844Z,962.45
2019-06-10T08:57:44.127Z,962.47
2019-06-10T08:58:45.738Z,962.47
2019-06-10T08:59:44.811Z,962.52
2019-06-10T09:00:45.064Z,962.52
2019-06-10T09:01:45.984Z,962.50
2019-06-10T09:02:45.197Z,962.55
2019-06-10T09:03:45.477Z,962.60
2019-06-10T09:04:45.585Z,962.59
2019-06-10T09:05:46.050Z,962.63
2019-06-10T09:06:46.317Z,962.72
2019-06-10T09:07:45.866Z,962.91
2019-06-10T09:08:45.445Z,962.88
2019-06-10T09:09:45.776Z,962.83
2019-06-10T09:10:45.621Z,962.78
2019-06-10T09:11:46.882Z,962.82
2019-06-10T09:12:45.470Z,962.75
2019-06-10T09:13:43.788Z,962.70
2019-06-10T09:14:44.023Z,962.80
2019-06-10T09:15:43.770Z,962.76
2019-06-10T09:16:44.392Z,963.06
2019-06-10T09:17:44.384Z,962.88
2019-06-10T09:18:44.463Z,962.92
2019-06-10T09:19:42.070Z,962.83
2019-06-10T09:20:44.926Z,963.14
2019-06-10T09:21:45.930Z,962.85
2019-06-10T09:22:42.243Z,962.85
2019-06-10T09:23:43.206Z,963.04
2019-06-10T09:24:42.698Z,962.80
2019-06-10T09:25:45.245Z,962.75
2019-06-10T09:26:44.480Z,962.75
2019-06-10T09:27:42.584Z,962.83
2019-06-10T09:28:45.114Z,962.76
2019-06-10T09:29:44.667Z,962.69
2019-06-10T09:30:46.858Z,963.09
2019-06-10T09:31:45.622Z,963.02
2019-06-10T09:32:42.629Z,962.75
2019-06-10T09:33:42.727Z,962.70
2019-06-10T09:34:43.056Z,962.62
2019-06-10T09:35:44.118Z,962.60
2019-06-10T09:36:42.231Z,962.67
2019-06-10T09:37:42.655Z,962.58
2019-06-10T09:38:41.785Z,962.53
2019-06-10T09:39:43.721Z,962.55
2019-06-10T09:40:41.778Z,962.65
2019-06-10T09:41:47.583Z,962.63
2019-06-10T09:42:45.586Z,962.57
2019-06-10T09:43:42.668Z,962.57
2019-06-10T09:44:45.106Z,962.55
2019-06-10T09:45:41.865Z,962.59
2019-06-10T09:46:44.071Z,962.58
2019-06-10T09:47:44.478Z,962.51
2019-06-10T09:48:44.362Z,962.48
2019-06-10T09:49:41.292Z,962.45
2019-06-10T09:50:44.603Z,962.47
2019-06-10T09:51:44.465Z,962.52
2019-06-10T09:52:41.583Z,962.49
2019-06-10T09:53:48.120Z,962.53
2019-06-10T09:54:42.935Z,962.51
2019-06-10T09:55:41.651Z,962.51
2019-06-10T09:56:42.780Z,962.58
2019-06-10T09:57:41.283Z,962.58
2019-06-10T09:58:40.795Z,962.59
2019-06-10T09:59:41.330Z,962.61
2019-06-10T10:00:41.818Z,962.59
2019-06-10T10:01:41.519Z,962.58
2019-06-10T10:02:44.951Z,962.58
2019-06-10T10:03:41.964Z,962.56
2019-06-10T10:04:40.967Z,962.60
2019-06-10T10:05:43.148Z,962.57
2019-06-10T10:06:41.450Z,962.51
2019-06-10T10:07:42.151Z,962.52
2019-06-10T10:08:41.353Z,962.58
2019-06-10T10:09:42.091Z,962.56
2019-06-10T10:10:39.701Z,962.60
2019-06-10T10:11:42.421Z,962.54
2019-06-10T10:12:39.633Z,962.52
2019-06-10T10:13:42.455Z,962.49
2019-06-10T10:14:39.578Z,962.46
2019-06-10T10:15:39.519Z,962.38
2019-06-10T10:16:39.485Z,962.36
2019-06-10T10:17:39.457Z,962.36
2019-06-10T10:18:39.454Z,962.30
2019-06-10T10:19:39.379Z,962.27
2019-06-10T10:20:39.369Z,962.28
2019-06-10T10:21:41.330Z,962.26
2019-06-10T10:22:39.280Z,962.21
2019-06-10T10:23:52.534Z,962.19
2019-06-10T10:24:39.212Z,962.23
2019-06-10T10:25:39.173Z,962.16
2019-06-10T10:26:39.165Z,962.12
2019-06-10T10:27:39.101Z,962.12
2019-06-10T10:28:39.067Z,962.16
2019-06-10T10:29:39.030Z,962.16
2019-06-10T10:30:39.032Z,962.30
2019-06-10T10:31:38.960Z,962.64
2019-06-10T10:32:38.927Z,962.52
2019-06-10T10:33:38.892Z,962.21
2019-06-10T10:34:38.856Z,962.15
2019-06-10T10:35:38.915Z,962.16
2019-06-10T10:36:38.809Z,962.26
2019-06-10T10:37:38.757Z,962.20
2019-06-10T10:38:38.797Z,962.19
2019-06-10T10:39:38.690Z,962.17
2019-06-10T10:40:38.664Z,962.09
2019-06-10T10:41:38.786Z,961.98
2019-06-10T10:42:44.810Z,961.95
2019-06-10T10:43:38.557Z,961.93
2019-06-10T10:44:38.525Z,962.02
2019-06-10T10:45:38.493Z,962.02
2019-06-10T10:46:38.458Z,961.91
2019-06-10T10:47:38.907Z,961.86
2019-06-10T10:48:38.395Z,961.90
2019-06-10T10:49:38.364Z,961.88
2019-06-10T10:50:38.328Z,961.90
2019-06-10T10:51:38.426Z,961.94
2019-06-10T10:52:38.258Z,961.88
2019-06-10T10:53:38.665Z,961.90
2019-06-10T10:54:38.190Z,961.88
2019-06-10T10:55:38.157Z,961.87
2019-06-10T10:56:38.124Z,961.87
2019-06-10T10:57:38.090Z,961.82
2019-06-10T10:58:38.060Z,961.85
2019-06-10T10:59:38.044Z,961.89
2019-06-10T11:00:37.989Z,961.94
2019-06-10T11:01:37.990Z,961.96
2019-06-10T11:02:37.917Z,961.95
2019-06-10T11:03:37.883Z,961.92
2019-06-10T11:04:37.854Z,962.00
2019-06-10T11:05:37.833Z,962.09
2019-06-10T11:06:37.785Z,962.18
2019-06-10T11:07:37.745Z,962.30
2019-06-10T11:08:37.707Z,962.40
2019-06-10T11:09:37.673Z,962.49
2019-06-10T11:10:37.640Z,962.56
2019-06-10T11:11:37.624Z,962.59
2019-06-10T11:12:37.565Z,962.60
2019-06-10T11:13:37.530Z,962.68
2019-06-10T11:14:37.495Z,962.70
2019-06-10T11:15:37.454Z,962.70
2019-06-10T11:16:37.422Z,962.77
2019-06-10T11:17:37.573Z,962.73
2019-06-10T11:18:37.350Z,962.79
2019-06-10T11:19:37.307Z,962.85
2019-06-10T11:20:37.280Z,962.90
2019-06-10T11:21:37.231Z,962.90
2019-06-10T11:22:37.196Z,962.86
2019-06-10T11:23:37.187Z,962.86
2019-06-10T11:24:41.169Z,962.83
2019-06-10T11:25:37.091Z,962.85
2019-06-10T11:26:37.046Z,962.85
2019-06-10T11:27:37.008Z,962.83
2019-06-10T11:28:37.247Z,962.85
2019-06-10T11:29:36.929Z,962.85
2019-06-10T11:30:36.890Z,962.82
2019-06-10T11:31:36.850Z,962.84
2019-06-10T11:32:36.811Z,962.85
2019-06-10T11:33:36.772Z,962.88
2019-06-10T11:34:36.758Z,962.81
2019-06-10T11:35:36.699Z,962.78
2019-06-10T11:36:36.712Z,962.77
2019-06-10T11:37:36.619Z,962.73
2019-06-10T11:38:36.578Z,962.69
2019-06-10T11:39:38.672Z,962.62
2019-06-10T11:40:36.496Z,962.57
2019-06-10T11:41:36.458Z,962.56
2019-06-10T11:42:36.446Z,962.49
2019-06-10T11:43:36.377Z,962.54
2019-06-10T11:44:36.335Z,962.51
2019-06-10T11:45:36.298Z,962.45
2019-06-10T11:46:36.257Z,962.41
2019-06-10T11:47:36.220Z,962.39
2019-06-10T11:48:36.213Z,962.36
2019-06-10T11:49:36.135Z,962.32
2019-06-10T11:50:36.094Z,962.31
2019-06-10T11:51:36.442Z,962.19
2019-06-10T11:52:36.013Z,962.06
2019-06-10T11:53:35.974Z,961.85
2019-06-10T11:54:50.917Z,961.51
2019-06-10T11:55:35.893Z,961.21
2019-06-10T11:56:35.853Z,961.12
2019-06-10T11:57:35.834Z,961.23
2019-06-10T11:58:35.770Z,961.51
2019-06-10T11:59:35.732Z,961.52
2019-06-10T12:00:35.693Z,961.53
2019-06-10T12:01:35.651Z,961.58
2019-06-10T12:02:35.648Z,961.66
2019-06-10T12:03:35.569Z,961.61
2019-06-10T12:04:35.531Z,961.52
2019-06-10T12:05:35.487Z,961.48
2019-06-10T12:06:35.445Z,961.39
2019-06-10T12:07:35.404Z,961.34
2019-06-10T12:08:35.390Z,961.28
2019-06-10T12:09:35.323Z,961.24
2019-06-10T12:10:35.284Z,961.34
2019-06-10T12:11:35.245Z,961.48
2019-06-10T12:12:35.205Z,961.59
2019-06-10T12:13:35.164Z,961.72
2019-06-10T12:14:35.142Z,961.85
2019-06-10T12:16:09.655Z,961.99
2019-06-10T12:17:46.896Z,962.13
2019-06-10T12:18:34.954Z,962.09
2019-06-10T12:19:34.917Z,962.07
2019-06-10T12:20:35.062Z,962.06
2019-06-10T12:21:34.836Z,962.07
2019-06-10T12:22:34.791Z,962.01
2019-06-10T12:23:34.760Z,962.01
2019-06-10T12:24:34.710Z,961.98
2019-06-10T12:25:39.338Z,961.99
2019-06-10T12:26:34.647Z,961.99
2019-06-10T12:27:34.595Z,962.00
2019-06-10T12:28:34.548Z,961.93
2019-06-10T12:29:35.009Z,961.85
2019-06-10T12:30:34.525Z,961.80
2019-06-10T12:31:34.778Z,961.79
2019-06-10T12:32:34.424Z,961.79
2019-06-10T12:33:34.343Z,961.83
2019-06-10T12:34:34.307Z,961.83
2019-06-10T12:35:42.296Z,961.82
2019-06-10T12:36:34.234Z,961.84
2019-06-10T12:37:34.534Z,961.85
2019-06-10T12:38:34.189Z,961.85
2019-06-10T12:39:35.040Z,961.89
2019-06-10T12:40:34.072Z,961.90
2019-06-10T12:41:34.039Z,961.84
2019-06-10T12:42:33.989Z,961.89
2019-06-10T12:43:33.951Z,961.86
2019-06-10T12:44:33.942Z,961.89
2019-06-10T12:45:33.874Z,961.90
2019-06-10T12:46:33.833Z,961.90
2019-06-10T12:47:34.115Z,961.86
2019-06-10T12:48:34.428Z,961.82
2019-06-10T12:49:33.718Z,961.73
2019-06-10T12:50:33.700Z,961.68
2019-06-10T12:51:33.637Z,961.63
2019-06-10T12:52:33.599Z,961.64
2019-06-10T12:53:33.691Z,961.67
2019-06-10T12:54:33.519Z,961.80
2019-06-10T12:55:42.309Z,961.80
2019-06-10T12:56:33.464Z,961.85
2019-06-10T12:57:33.403Z,961.88
2019-06-10T12:58:33.698Z,961.84
2019-06-10T12:59:33.321Z,961.79
2019-06-10T13:00:33.336Z,961.74
2019-06-10T13:01:33.245Z,961.75
2019-06-10T13:02:34.637Z,961.73
2019-06-10T13:03:33.939Z,961.77
2019-06-10T13:04:33.124Z,961.75
2019-06-10T13:05:33.292Z,961.71
2019-06-10T13:06:33.044Z,961.77
2019-06-10T13:07:33.009Z,961.76
2019-06-10T13:08:33.216Z,961.76
2019-06-10T13:09:33.835Z,961.73
2019-06-10T13:10:33.336Z,961.73
2019-06-10T13:11:33.414Z,961.68
2019-06-10T13:12:33.352Z,961.64
2019-06-10T13:13:32.922Z,961.64
2019-06-10T13:14:32.786Z,961.62
2019-06-10T13:15:32.954Z,961.65
2019-06-10T13:16:32.646Z,961.67
2019-06-10T13:17:32.608Z,961.72
2019-06-10T13:18:32.567Z,961.74
2019-06-10T13:19:34.340Z,961.76
2019-06-10T13:20:32.509Z,961.72
2019-06-10T13:21:32.957Z,961.71
2019-06-10T13:22:32.529Z,961.69
2019-06-10T13:23:35.130Z,961.67
2019-06-10T13:24:33.780Z,961.59
2019-06-10T13:25:33.462Z,961.49
2019-06-10T13:26:35.165Z,961.45
2019-06-10T13:27:32.204Z,961.46
2019-06-10T13:28:32.610Z,961.49
2019-06-10T13:29:33.174Z,961.54
2019-06-10T13:30:34.185Z,961.55
2019-06-10T13:31:33.672Z,961.58
2019-06-10T13:34:08.849Z,961.50
2019-06-10T13:35:06.035Z,961.47
2019-06-10T13:36:05.436Z,961.46
2019-06-10T13:37:06.788Z,961.45
2019-06-10T13:38:05.678Z,961.42
2019-06-10T13:39:06.647Z,961.43
2019-06-10T13:40:06.709Z,961.48
2019-06-10T13:41:04.257Z,961.56
2019-06-10T13:42:07.750Z,961.59
2019-06-10T13:43:03.906Z,961.59
2019-06-10T13:44:04.184Z,961.64
2019-06-10T13:45:06.375Z,961.65
2019-06-10T13:46:06.692Z,961.62
2019-06-10T13:47:07.054Z,961.55
2019-06-10T13:48:07.791Z,961.48
2019-06-10T13:49:06.905Z,961.43
2019-06-10T13:50:06.218Z,961.39
2019-06-10T13:51:08.327Z,961.34
2019-06-10T13:52:07.906Z,961.27
2019-06-10T13:53:04.864Z,961.22
2019-06-10T13:54:05.373Z,961.15
2019-06-10T13:55:04.015Z,961.08
2019-06-10T13:56:30.425Z,961.09
2019-06-10T13:57:05.003Z,961.08
2019-06-10T13:58:06.184Z,961.09
2019-06-10T13:59:04.167Z,961.09
2019-06-10T14:00:05.619Z,961.06
2019-06-10T14:01:05.305Z,961.09
2019-06-10T14:02:06.380Z,961.14
2019-06-10T14:03:06.341Z,961.19
2019-06-10T14:04:09.745Z,961.31
2019-06-10T14:05:10.279Z,961.35
2019-06-10T14:06:12.958Z,961.41
2019-06-10T14:07:07.385Z,961.39
2019-06-10T14:08:05.415Z,961.41
2019-06-10T14:09:07.685Z,961.42
2019-06-10T14:10:07.252Z,961.46
2019-06-10T14:11:06.985Z,961.45
2019-06-10T14:12:03.838Z,961.46
2019-06-10T14:13:03.971Z,961.46
2019-06-10T14:14:03.706Z,961.47
2019-06-10T14:15:04.528Z,961.49
2019-06-10T14:16:03.451Z,961.48
2019-06-10T14:17:03.807Z,961.51
2019-06-10T14:18:05.213Z,961.49
2019-06-10T14:19:05.855Z,961.49
2019-06-10T14:20:03.631Z,961.48
2019-06-10T14:21:05.024Z,961.47
2019-06-10T14:22:04.462Z,961.51
2019-06-10T14:23:02.578Z,961.51
2019-06-10T14:24:02.230Z,961.54
2019-06-10T14:25:03.871Z,961.57
2019-06-10T14:26:03.226Z,961.56
2019-06-10T14:27:03.298Z,961.61
2019-06-10T14:28:04.360Z,961.66
2019-06-10T14:29:03.027Z,961.67
2019-06-10T14:30:04.600Z,961.71
2019-06-10T14:31:05.129Z,961.70
2019-06-10T14:32:02.629Z,961.74
2019-06-10T14:33:02.889Z,961.72
2019-06-10T14:34:04.278Z,961.72
2019-06-10T14:35:01.756Z,961.73
2019-06-10T14:37:39.139Z,961.83
2019-06-10T14:38:33.430Z,961.91
2019-06-10T14:39:33.641Z,962.04
2019-06-10T14:40:33.386Z,962.06
2019-06-10T14:41:33.617Z,962.03
2019-06-10T14:42:33.266Z,962.01
2019-06-10T14:43:33.435Z,961.96
2019-06-10T14:44:33.188Z,961.99
2019-06-10T14:45:33.233Z,962.00
2019-06-10T14:46:33.108Z,962.03
2019-06-10T14:47:34.497Z,962.05
2019-06-10T14:48:33.743Z,962.03
2019-06-10T14:49:33.110Z,962.02
2019-06-10T14:50:32.945Z,961.96
2019-06-10T14:51:32.917Z,961.95
2019-06-10T14:52:32.864Z,961.97
2019-06-10T14:53:33.739Z,962.05
2019-06-10T14:54:32.783Z,962.03
2019-06-10T14:55:34.018Z,962.07
2019-06-10T14:56:33.281Z,962.07
2019-06-10T14:57:33.470Z,962.04
